LFRI

Details ICAO LFRI (EDM)
Name La Roche sur Yon les Ajoncs
Region France
Timezone Europe/Paris (UTC+2.0)
Plans Departing 15
Arriving 14
Stats Elevation 299 ft / 91 m (AMSL)
Location 46.701944° -1.378625°
Runways 1
Magnetic Variation 0.341° W
Sunrise 2018-05-23 04:24:09 UTC / 2018-05-23 06:24:09 Local
Sunset 2018-05-23 19:43:14 UTC / 2018-05-23 21:43:14 Local
Advertisement - Login to hide

Runways

ID Width Length Bearing (true) Bearing (mag) Surface Threshold Offset Overrun Length
10 98 ft / 30 m 5,073 ft / 1,546 m 101.40° 101.74° Asphalt 0 ft / 0 m 0 ft / 0 m
28 98 ft / 30 m 5,073 ft / 1,546 m 281.42° 281.76° Asphalt 951 ft / 290 m 0 ft / 0 m

Approach Navaids

Runway Type Ident Frequency Range Bearing (true) Bearing (mag) Slope Elevation
28 Localiser LRY 111.90 MHz 18 nm / 33 km 281.41° 281.75° - 281 ft / 86 m (AMSL)
28 Glidescope LRY 111.90 MHz 10 nm / 19 km 281.41° 281.75° 3.00° 335 ft / 102 m (AMSL)
28 DME LRY 111.90 MHz 18 nm / 33 km - - - 335 ft / 102 m (AMSL)

Map

Weather


0- 5 10 15 20 25 30 35+ Temperature / ° C

Clouds and Precipitation
Forecast for 2018-05-23 00:00 UTC. Updated 3 hours ago

Ground ~20,000 ft ~40,000 ft Winds

METAR

LFRI 230200Z AUTO 01007KT CAVOK 13/11 Q1016

TAF

TAF LFRI 222101Z 2221/2318 CNL

Frequencies

Tower 119.90 MHz LA ROCHE INFO
Approach 130.27 MHz NANTES APP
Warning: Do not use this data for real-world aviation or navigation. No guarantee of current accuracy is given.